DLH265Y EHAM-LFLL
Flight info
| Callsign | DLH265Y |
|---|---|
| Flight time | N/A |
| Altitude | 27000 |
| Route | WOODY N872 AMMOF/N0471F290 N872 NIK M624 DIK N852 SUTAL DCT GTQ DCT POGOL DCT LASAT DCT MOROK Z24 BOLGI T14 MILPA |
| Aircraft | A319/M-SDE3FGHIRWY/LB1 |
Departure
| Time | 2026-04-30 14:55 |
|---|---|
| Airport | Amsterdam Airport Schiphol (EHAM) |
Arrival
| Time | N/A |
|---|---|
| Airport | Lyon Saint-Exupéry Airport (LFLL) |
| Time | Latitude | Longitude | Altitude | Speed | Heading |
|---|---|---|---|---|---|
| 2026-04-30 14:20 | 52.31227 | 4.76844 | -1 ft | 0 kts | 303° |
| 2026-04-30 14:21 | 52.31227 | 4.76845 | -1 ft | 0 kts | 303° |
| 2026-04-30 14:42 | 52.31217 | 4.76870 | -1 ft | 4 kts | 303° |
| 2026-04-30 14:42 | 52.31202 | 4.76907 | -1 ft | 4 kts | 304° |
| 2026-04-30 14:43 | 52.31186 | 4.76943 | -1 ft | 4 kts | 317° |
| 2026-04-30 14:43 | 52.31167 | 4.76959 | -1 ft | 2 kts | 31° |
| 2026-04-30 14:43 | 52.31166 | 4.76958 | -1 ft | 3 kts | 33° |
| 2026-04-30 14:46 | 52.31168 | 4.76960 | -1 ft | 2 kts | 33° |
| 2026-04-30 14:46 | 52.31193 | 4.76988 | -1 ft | 5 kts | 35° |
| 2026-04-30 14:46 | 52.31225 | 4.77025 | -1 ft | 6 kts | 34° |
| 2026-04-30 14:46 | 52.31268 | 4.77073 | -1 ft | 10 kts | 33° |
| 2026-04-30 14:47 | 52.31341 | 4.77154 | -1 ft | 14 kts | 35° |
| 2026-04-30 14:47 | 52.31434 | 4.77194 | -1 ft | 14 kts | 3° |
| 2026-04-30 14:47 | 52.31535 | 4.77190 | -1 ft | 14 kts | 335° |
| 2026-04-30 14:47 | 52.31565 | 4.77042 | -1 ft | 15 kts | 270° |
| 2026-04-30 14:48 | 52.31559 | 4.76848 | -1 ft | 19 kts | 268° |
| 2026-04-30 14:48 | 52.31551 | 4.76610 | -1 ft | 22 kts | 266° |
| 2026-04-30 14:48 | 52.31542 | 4.76360 | -1 ft | 22 kts | 266° |
| 2026-04-30 14:48 | 52.31534 | 4.76109 | -1 ft | 22 kts | 267° |
| 2026-04-30 14:49 | 52.31526 | 4.75869 | -1 ft | 21 kts | 266° |
| 2026-04-30 14:49 | 52.31516 | 4.75629 | -1 ft | 21 kts | 266° |
| 2026-04-30 14:49 | 52.31507 | 4.75391 | -1 ft | 21 kts | 266° |
| 2026-04-30 14:49 | 52.31499 | 4.75156 | -1 ft | 21 kts | 267° |
| 2026-04-30 14:50 | 52.31491 | 4.74739 | -1 ft | 13 kts | 278° |
| 2026-04-30 14:50 | 52.31558 | 4.74664 | -1 ft | 12 kts | 353° |
| 2026-04-30 14:51 | 52.31571 | 4.74663 | -1 ft | 0 kts | 0° |
| 2026-04-30 14:52 | 52.31582 | 4.74664 | -1 ft | 5 kts | 2° |
| 2026-04-30 14:52 | 52.31649 | 4.74709 | 0 ft | 14 kts | 47° |
| 2026-04-30 14:53 | 52.31666 | 4.74782 | -1 ft | 0 kts | 88° |
| 2026-04-30 14:54 | 52.31700 | 4.75723 | -1 ft | 104 kts | 86° |
| 2026-04-30 14:54 | 52.31830 | 4.79110 | 339 ft | 171 kts | 86° |
| 2026-04-30 14:55 | 52.31237 | 4.82698 | 1465 ft | 191 kts | 142° |
| 2026-04-30 14:55 | 52.29901 | 4.83453 | 1841 ft | 219 kts | 166° |
| 2026-04-30 14:55 | 52.26829 | 4.83728 | 3864 ft | 216 kts | 166° |
| 2026-04-30 14:56 | 52.23802 | 4.84563 | 5373 ft | 240 kts | 171° |
| 2026-04-30 14:56 | 52.20313 | 4.84715 | 6924 ft | 258 kts | 175° |
| 2026-04-30 14:57 | 52.18488 | 4.84683 | 7745 ft | 264 kts | 176° |
| 2026-04-30 14:57 | 52.14758 | 4.84582 | 9409 ft | 273 kts | 176° |
| 2026-04-30 14:58 | 52.10888 | 4.84419 | 10729 ft | 297 kts | 183° |
| 2026-04-30 14:58 | 52.08821 | 4.83337 | 10958 ft | 327 kts | 198° |
| 2026-04-30 14:58 | 52.04323 | 4.80242 | 11333 ft | 372 kts | 199° |
| 2026-04-30 14:59 | 51.99477 | 4.76819 | 12494 ft | 385 kts | 200° |
| 2026-04-30 15:00 | 51.92142 | 4.71701 | 14365 ft | 397 kts | 199° |
| 2026-04-30 15:00 | 51.87018 | 4.68179 | 15539 ft | 404 kts | 199° |
| 2026-04-30 15:01 | 51.81789 | 4.64602 | 16719 ft | 410 kts | 199° |
| 2026-04-30 15:01 | 51.80044 | 4.63410 | 17104 ft | 411 kts | 199° |
| 2026-04-30 15:01 | 51.73830 | 4.59182 | 18410 ft | 418 kts | 200° |
| 2026-04-30 15:02 | 51.71142 | 4.57354 | 18886 ft | 421 kts | 200° |
| 2026-04-30 15:02 | 51.68427 | 4.55509 | 19337 ft | 424 kts | 200° |
| 2026-04-30 15:03 | 51.60197 | 4.49905 | 20622 ft | 432 kts | 200° |
| 2026-04-30 15:03 | 51.54619 | 4.46120 | 21426 ft | 438 kts | 200° |
| 2026-04-30 15:04 | 51.49004 | 4.42336 | 22227 ft | 443 kts | 200° |
| 2026-04-30 15:04 | 51.40393 | 4.36541 | 23357 ft | 452 kts | 200° |
| 2026-04-30 15:05 | 51.31748 | 4.30142 | 24347 ft | 460 kts | 202° |
| 2026-04-30 15:06 | 51.25576 | 4.28286 | 24958 ft | 453 kts | 173° |
| 2026-04-30 15:06 | 51.19924 | 4.31356 | 25526 ft | 447 kts | 145° |
| 2026-04-30 15:07 | 51.14832 | 4.37127 | 26099 ft | 450 kts | 142° |
| 2026-04-30 15:07 | 51.09731 | 4.42985 | 26668 ft | 453 kts | 142° |
| 2026-04-30 15:08 | 51.04612 | 4.48846 | 27228 ft | 453 kts | 142° |
| 2026-04-30 15:08 | 50.96932 | 4.57581 | 27276 ft | 452 kts | 142° |
| 2026-04-30 15:09 | 50.91821 | 4.63374 | 27275 ft | 452 kts | 142° |
| 2026-04-30 15:09 | 50.86687 | 4.69183 | 27277 ft | 453 kts | 142° |
| 2026-04-30 15:10 | 50.81583 | 4.74943 | 27278 ft | 453 kts | 142° |
| 2026-04-30 15:11 | 50.71275 | 4.86550 | 28674 ft | 453 kts | 142° |
| 2026-04-30 15:11 | 50.66142 | 4.92300 | 29275 ft | 452 kts | 142° |
| 2026-04-30 15:13 | 50.53346 | 5.06547 | 29277 ft | 451 kts | 142° |
| 2026-04-30 15:14 | 50.35415 | 5.26350 | 29274 ft | 450 kts | 142° |
| 2026-04-30 15:17 | 50.12326 | 5.51604 | 29269 ft | 450 kts | 142° |
| 2026-04-30 15:19 | 49.91739 | 5.73859 | 29282 ft | 450 kts | 142° |